createdAt,value
2024-03-16T00:03:45.523Z,86.54
2024-03-16T00:08:44.535Z,87.16
2024-03-16T00:13:44.407Z,84.90
2024-03-16T00:18:49.267Z,85.00
2024-03-16T00:23:46.131Z,88.12
2024-03-16T00:28:47.099Z,88.95
2024-03-16T00:33:49.037Z,90.42
2024-03-16T00:38:47.924Z,91.45
2024-03-16T00:43:48.851Z,91.39
2024-03-16T00:48:51.778Z,96.73
2024-03-16T00:53:50.613Z,98.02
2024-03-16T00:58:55.401Z,98.84
2024-03-16T01:03:52.458Z,97.75
2024-03-16T01:08:53.490Z,95.59
2024-03-16T01:13:54.614Z,96.06
2024-03-16T01:18:56.564Z,96.42
2024-03-16T01:23:56.495Z,96.72
2024-03-16T01:28:55.486Z,96.21
2024-03-16T01:33:56.363Z,98.37
2024-03-16T01:38:57.286Z,98.68
2024-03-16T01:43:58.148Z,96.00
2024-03-16T01:48:59.436Z,94.73
2024-03-16T01:54:00.574Z,93.70
2024-03-16T01:59:01.448Z,94.17
2024-03-16T02:04:02.398Z,93.55
2024-03-16T02:09:03.396Z,92.27
2024-03-16T02:14:04.462Z,93.96
2024-03-16T02:19:05.983Z,94.89
2024-03-16T02:24:05.023Z,95.92
2024-03-16T02:29:05.987Z,96.68
2024-03-16T02:34:08.021Z,96.37
2024-03-16T02:39:06.933Z,97.09
2024-03-16T02:44:07.990Z,97.19
2024-03-16T02:49:09.949Z,96.89
2024-03-16T02:54:10.908Z,92.93
2024-03-16T02:59:09.782Z,92.32
2024-03-16T03:04:12.711Z,90.83
2024-03-16T03:09:11.879Z,91.14
2024-03-16T03:14:12.717Z,91.14
2024-03-16T03:19:12.742Z,91.35
2024-03-16T03:24:13.590Z,92.48
2024-03-16T03:29:14.479Z,91.35
2024-03-16T03:34:16.403Z,90.63
2024-03-16T03:39:16.361Z,91.60
2024-03-16T03:44:16.285Z,92.42
2024-03-16T03:49:15.196Z,92.63
2024-03-16T03:54:16.084Z,91.66
2024-03-16T03:59:18.026Z,91.66
2024-03-16T04:04:17.931Z,92.52
2024-03-16T04:09:16.821Z,93.14
2024-03-16T04:14:18.701Z,92.42
2024-03-16T04:19:17.705Z,91.76
2024-03-16T04:24:18.663Z,93.76
2024-03-16T04:29:19.592Z,94.17
2024-03-16T04:34:22.468Z,93.30
2024-03-16T04:39:21.377Z,93.40
2024-03-16T04:44:23.266Z,94.17
2024-03-16T04:49:23.997Z,94.68
2024-03-16T04:54:23.951Z,96.27
2024-03-16T04:59:23.842Z,96.68
2024-03-16T05:04:22.930Z,96.99
2024-03-16T05:09:24.812Z,96.22
2024-03-16T05:14:23.975Z,95.61
2024-03-16T05:19:24.960Z,95.81
2024-03-16T05:24:26.934Z,95.30
2024-03-16T05:29:26.052Z,95.20
2024-03-16T05:34:27.990Z,93.35
2024-03-16T05:39:26.984Z,94.17
2024-03-16T05:44:28.078Z,91.99
2024-03-16T05:49:29.107Z,91.12
2024-03-16T05:54:30.123Z,91.33
2024-03-16T05:59:31.074Z,91.22
2024-03-16T06:04:32.038Z,91.42
2024-03-16T06:09:33.003Z,90.87
2024-03-16T06:14:33.983Z,91.28
2024-03-16T06:19:36.338Z,92.04
2024-03-16T06:24:35.306Z,92.14
2024-03-16T06:29:36.361Z,92.14
2024-03-16T06:34:37.338Z,91.94
2024-03-16T06:39:39.355Z,90.97
2024-03-16T06:44:38.274Z,90.26
2024-03-16T06:49:39.299Z,91.49
2024-03-16T06:54:41.368Z,91.69
2024-03-16T06:59:41.038Z,90.32
2024-03-16T07:04:42.244Z,90.93
2024-03-16T07:09:42.219Z,89.31
2024-03-16T07:14:41.167Z,85.99
2024-03-16T07:19:42.110Z,86.61
2024-03-16T07:24:43.145Z,85.89
2024-03-16T07:29:46.061Z,83.29
2024-03-16T07:34:45.165Z,81.41
2024-03-16T07:39:46.143Z,81.21
2024-03-16T07:44:47.182Z,81.31
2024-03-16T07:49:48.102Z,81.82
2024-03-16T07:54:49.077Z,84.93
2024-03-16T07:59:50.005Z,86.05
2024-03-16T08:04:52.043Z,85.30
2024-03-16T08:09:52.089Z,84.34
2024-03-16T08:14:51.070Z,82.69
2024-03-16T08:19:52.036Z,80.37
2024-03-16T08:24:53.055Z,78.64
2024-03-16T08:29:54.025Z,79.66
2024-03-16T08:34:54.933Z,80.91
2024-03-16T08:39:55.926Z,81.12
2024-03-16T08:44:56.899Z,79.96
2024-03-16T08:49:58.156Z,80.78
2024-03-16T08:54:59.158Z,80.07
2024-03-16T08:59:59.129Z,80.78
2024-03-16T09:05:00.127Z,81.59
2024-03-16T09:10:01.052Z,83.44
2024-03-16T09:15:02.030Z,84.01
2024-03-16T09:20:03.128Z,83.71
2024-03-16T09:25:04.118Z,83.26
2024-03-16T09:30:06.185Z,83.16
2024-03-16T09:35:05.136Z,82.55
2024-03-16T09:40:07.295Z,80.43
2024-03-16T09:45:07.279Z,80.70
2024-03-16T09:50:06.265Z,79.50
2024-03-16T09:55:07.281Z,79.23
2024-03-16T10:00:08.282Z,76.28
2024-03-16T10:05:09.235Z,78.96
2024-03-16T10:10:11.931Z,71.56
2024-03-16T10:15:12.580Z,75.46
2024-03-16T10:20:11.531Z,76.04
2024-03-16T10:25:12.894Z,78.25
2024-03-16T10:30:13.804Z,81.31
2024-03-16T10:35:14.770Z,77.36
2024-03-16T10:40:16.860Z,74.88
2024-03-16T10:45:15.727Z,75.36
2024-03-16T10:50:16.741Z,74.85
2024-03-16T10:55:17.631Z,74.95
2024-03-16T11:00:18.713Z,75.26
2024-03-16T11:05:20.788Z,74.24
2024-03-16T11:10:19.847Z,73.66
2024-03-16T11:15:21.744Z,70.42
2024-03-16T11:20:20.672Z,70.59
2024-03-16T11:25:21.676Z,69.84
2024-03-16T11:30:33.219Z,70.56
2024-03-16T11:35:22.477Z,68.49
2024-03-16T11:40:23.508Z,67.25
2024-03-16T11:45:24.581Z,65.53
2024-03-16T11:50:25.459Z,66.88
2024-03-16T11:55:26.380Z,59.74
2024-03-16T12:00:27.371Z,61.56
2024-03-16T12:05:28.326Z,58.20
2024-03-16T12:10:29.265Z,59.23
2024-03-16T12:15:31.308Z,59.76
2024-03-16T12:20:31.238Z,58.25
2024-03-16T12:25:32.231Z,59.08
2024-03-16T12:30:33.251Z,60.93
2024-03-16T12:35:34.164Z,62.54
2024-03-16T12:40:35.139Z,56.68
2024-03-16T12:45:36.154Z,60.69
2024-03-16T12:50:37.130Z,60.16
2024-03-16T12:55:38.076Z,59.42
2024-03-16T13:00:40.076Z,57.81
2024-03-16T13:05:39.093Z,58.82
2024-03-16T13:10:40.219Z,58.29
2024-03-16T13:15:41.236Z,58.92
2024-03-16T13:20:41.093Z,58.17
2024-03-16T13:25:42.007Z,59.28
2024-03-16T13:30:43.046Z,59.71
2024-03-16T13:35:46.154Z,57.75
2024-03-16T13:40:45.083Z,59.56
2024-03-16T13:45:46.464Z,58.02
2024-03-16T13:50:48.452Z,61.71
2024-03-16T13:55:47.365Z,63.08
2024-03-16T14:00:48.316Z,67.38
2024-03-16T14:05:49.298Z,68.73
2024-03-16T14:10:50.296Z,67.38
2024-03-16T14:15:51.180Z,63.30
2024-03-16T14:20:53.191Z,63.12
2024-03-16T14:25:53.954Z,66.00
2024-03-16T14:30:54.052Z,61.44
2024-03-16T14:35:52.957Z,59.32
2024-03-16T14:40:53.989Z,58.89
2024-03-16T14:45:55.972Z,58.13
2024-03-16T14:50:54.915Z,56.94
2024-03-16T14:55:57.215Z,56.84
2024-03-16T15:00:56.226Z,57.65
2024-03-16T15:05:57.124Z,62.20
2024-03-16T15:10:58.157Z,69.60
2024-03-16T15:15:59.327Z,72.58
2024-03-16T15:21:01.484Z,73.13
2024-03-16T15:26:01.459Z,74.86
2024-03-16T15:31:01.360Z,73.94
2024-03-16T15:36:01.336Z,73.67
2024-03-16T15:41:00.345Z,73.02
2024-03-16T15:46:01.345Z,74.28
2024-03-16T15:51:02.851Z,73.26
2024-03-16T15:56:01.768Z,71.06
2024-03-16T16:01:02.772Z,72.38
2024-03-16T16:06:04.740Z,70.35
2024-03-16T16:11:03.683Z,70.18
2024-03-16T16:16:04.605Z,72.58
2024-03-16T16:21:04.520Z,69.84
2024-03-16T16:26:06.510Z,73.47
2024-03-16T16:31:05.611Z,73.54
2024-03-16T16:36:07.606Z,74.15
2024-03-16T16:41:07.527Z,75.57
2024-03-16T16:46:08.592Z,76.28
2024-03-16T16:51:08.471Z,75.09
2024-03-16T16:56:08.439Z,77.71
2024-03-16T17:01:07.315Z,77.30
2024-03-16T17:06:08.276Z,76.32
2024-03-16T17:11:10.194Z,75.37
2024-03-16T17:16:10.285Z,79.59
2024-03-16T17:21:09.260Z,80.75
2024-03-16T17:26:11.207Z,82.32
2024-03-16T17:31:10.222Z,82.22
2024-03-16T17:36:10.190Z,80.44
2024-03-16T17:41:11.103Z,82.15
2024-03-16T17:46:12.128Z,80.32
2024-03-16T17:51:13.078Z,79.87
2024-03-16T17:56:14.110Z,82.15
2024-03-16T18:01:15.047Z,82.67
2024-03-16T18:06:16.103Z,84.09
2024-03-16T18:11:17.045Z,85.77
2024-03-16T18:16:18.953Z,86.94
2024-03-16T18:21:18.998Z,87.04
2024-03-16T18:26:18.879Z,87.14
2024-03-16T18:31:17.943Z,87.65
2024-03-16T18:36:18.974Z,87.14
2024-03-16T18:41:19.910Z,86.94
2024-03-16T18:46:24.302Z,85.61
2024-03-16T18:51:21.561Z,84.89
2024-03-16T18:56:22.562Z,86.83
2024-03-16T19:01:23.678Z,84.75
2024-03-16T19:06:24.554Z,86.29
2024-03-16T19:11:26.471Z,84.34
2024-03-16T19:16:25.354Z,85.67
2024-03-16T19:21:26.583Z,85.77
2024-03-16T19:26:27.640Z,86.12
2024-03-16T19:31:30.501Z,88.10
2024-03-16T19:36:29.566Z,86.98
2024-03-16T19:41:30.544Z,88.00
2024-03-16T19:46:31.595Z,88.04
2024-03-16T19:51:32.502Z,89.37
2024-03-16T19:56:33.363Z,89.27
2024-03-16T20:01:34.261Z,86.57
2024-03-16T20:06:36.287Z,85.81
2024-03-16T20:11:35.542Z,85.40
2024-03-16T20:16:36.678Z,84.79
2024-03-16T20:21:37.714Z,85.50
2024-03-16T20:26:39.729Z,85.71
2024-03-16T20:31:39.736Z,86.36
2024-03-16T20:36:39.627Z,85.85
2024-03-16T20:42:22.712Z,85.55
2024-03-16T20:46:41.565Z,85.34
2024-03-16T20:51:40.524Z,85.61
2024-03-16T20:56:43.402Z,87.18
2024-03-16T21:01:42.399Z,87.38
2024-03-16T21:06:45.308Z,88.04
2024-03-16T21:11:45.452Z,87.53
2024-03-16T21:16:44.428Z,87.43
2024-03-16T21:21:45.347Z,87.12
2024-03-16T21:26:47.290Z,87.53
2024-03-16T21:31:47.281Z,87.43
2024-03-16T21:36:46.305Z,87.73
2024-03-16T21:41:47.399Z,88.29
2024-03-16T21:46:49.454Z,88.70
2024-03-16T21:51:50.930Z,87.88
2024-03-16T21:56:49.237Z,88.18
2024-03-16T22:01:51.117Z,90.28
2024-03-16T22:06:51.336Z,91.55
2024-03-16T22:11:50.325Z,91.65
2024-03-16T22:16:51.397Z,91.50
2024-03-16T22:21:52.331Z,92.47
2024-03-16T22:26:53.531Z,92.47
2024-03-16T22:31:54.482Z,92.47
2024-03-16T22:36:56.818Z,91.86
2024-03-16T22:41:56.669Z,91.03
2024-03-16T22:46:55.546Z,91.75
2024-03-16T22:51:56.632Z,91.86
2024-03-16T22:56:57.523Z,91.35
2024-03-16T23:01:57.602Z,91.75
2024-03-16T23:06:58.710Z,90.32
2024-03-16T23:12:01.572Z,90.62
2024-03-16T23:17:00.602Z,90.67
2024-03-16T23:22:01.643Z,89.29
2024-03-16T23:27:02.544Z,89.09
2024-03-16T23:32:03.609Z,88.88
2024-03-16T23:37:04.626Z,87.55
2024-03-16T23:42:06.532Z,87.65
2024-03-16T23:47:06.400Z,88.17
2024-03-16T23:52:05.312Z,89.43
2024-03-16T23:57:06.195Z,90.71
